createdAt,value
2022-08-17T00:00:34.197Z,97901.41
2022-08-17T00:03:15.241Z,97897.31
2022-08-17T00:05:49.922Z,97899.78
2022-08-17T00:08:20.339Z,97899.28
2022-08-17T00:10:48.904Z,97896.94
2022-08-17T00:13:24.139Z,97896.09
2022-08-17T00:15:50.980Z,97895.06
2022-08-17T00:19:01.182Z,97885.97
2022-08-17T00:21:10.557Z,97894.66
2022-08-17T00:23:38.252Z,97897.41
2022-08-17T00:26:05.246Z,97890.63
2022-08-17T00:28:33.394Z,97901.09
2022-08-17T00:31:00.658Z,97895.13
2022-08-17T00:33:31.610Z,97900.63
2022-08-17T00:35:59.762Z,97896.19
2022-08-17T00:38:28.771Z,97903.75
2022-08-17T00:41:00.947Z,97900.53
2022-08-17T00:43:40.791Z,97908.09
2022-08-17T00:46:13.388Z,97912.69
2022-08-17T00:48:40.436Z,97911.66
2022-08-17T00:51:22.814Z,97922.03
2022-08-17T00:54:02.728Z,97914.69
2022-08-17T00:56:36.543Z,97916.09
2022-08-17T00:59:05.213Z,97918.72
2022-08-17T01:01:32.884Z,97914.69
2022-08-17T01:04:01.545Z,97909.38
2022-08-17T01:06:28.800Z,97906.66
2022-08-17T01:08:58.063Z,97905.69
2022-08-17T01:11:25.793Z,97908.53
2022-08-17T01:13:52.598Z,97910.78
2022-08-17T01:16:26.780Z,97903.34
2022-08-17T01:18:58.568Z,97904.19
2022-08-17T01:21:31.221Z,97914.94
2022-08-17T01:23:58.000Z,97908.88
2022-08-17T01:26:24.684Z,97906.84
2022-08-17T01:28:55.382Z,97908.72
2022-08-17T01:31:25.240Z,97908.44
2022-08-17T01:33:52.277Z,97918.22
2022-08-17T01:36:19.040Z,97917.75
2022-08-17T01:38:45.791Z,97915.84
2022-08-17T01:41:16.836Z,97911.22
2022-08-17T01:43:52.093Z,97916.69
2022-08-17T01:46:27.181Z,97921.50
2022-08-17T01:48:55.492Z,97919.66
2022-08-17T01:51:22.468Z,97913.31
2022-08-17T01:53:57.559Z,97920.00
2022-08-17T01:56:26.373Z,97919.69
2022-08-17T01:58:53.870Z,97918.34
2022-08-17T02:01:24.194Z,97907.22
2022-08-17T02:03:56.314Z,97913.38
2022-08-17T02:06:29.956Z,97914.06
2022-08-17T02:09:02.773Z,97913.03
2022-08-17T02:11:33.030Z,97913.88
2022-08-17T02:14:03.655Z,97915.94
2022-08-17T02:16:38.318Z,97912.88
2022-08-17T02:19:08.465Z,97916.00
2022-08-17T02:21:36.861Z,97917.19
2022-08-17T02:24:05.429Z,97913.63
2022-08-17T02:26:32.959Z,97913.13
2022-08-17T02:28:59.803Z,97920.84
2022-08-17T02:31:26.449Z,97920.84
2022-08-17T02:34:00.466Z,97926.97
2022-08-17T02:36:34.728Z,97922.19
2022-08-17T02:39:03.567Z,97925.78
2022-08-17T02:41:32.835Z,97921.91
2022-08-17T02:44:00.635Z,97916.31
2022-08-17T02:46:27.430Z,97915.81
2022-08-17T02:48:54.420Z,97924.88
2022-08-17T02:51:21.181Z,97923.84
2022-08-17T02:53:48.168Z,97921.94
2022-08-17T02:56:14.868Z,97924.88
2022-08-17T02:58:41.651Z,97929.84
2022-08-17T03:01:10.289Z,97913.81
2022-08-17T03:03:38.408Z,97917.13
2022-08-17T03:06:07.701Z,97922.09
2022-08-17T03:08:35.487Z,97922.63
2022-08-17T03:11:03.966Z,97922.13
2022-08-17T03:13:31.005Z,97930.53
2022-08-17T03:15:58.699Z,97931.19
2022-08-17T03:18:26.370Z,97933.53
2022-08-17T03:20:55.441Z,97940.06
2022-08-17T03:23:24.290Z,97941.72
2022-08-17T03:25:53.646Z,97940.38
2022-08-17T03:28:21.903Z,97944.59
2022-08-17T03:30:48.913Z,97940.53
2022-08-17T03:33:16.286Z,97942.97
2022-08-17T03:35:43.069Z,97950.47
2022-08-17T03:38:12.456Z,97950.31
2022-08-17T03:40:58.517Z,97953.72
2022-08-17T03:43:30.540Z,97952.88
2022-08-17T03:46:28.341Z,97954.56
2022-08-17T03:49:19.503Z,97951.81
2022-08-17T03:52:07.094Z,97950.97
2022-08-17T03:54:52.537Z,97952.00
2022-08-17T03:57:19.498Z,97955.09
2022-08-17T03:59:46.501Z,97962.06
2022-08-17T04:02:19.827Z,97957.28
2022-08-17T04:04:46.988Z,97955.78
2022-08-17T04:07:13.733Z,97969.59
2022-08-17T04:09:42.997Z,97972.16
2022-08-17T04:12:11.458Z,97969.72
2022-08-17T04:14:52.776Z,97977.38
2022-08-17T04:17:21.768Z,97977.22
2022-08-17T04:19:48.421Z,97981.81
2022-08-17T04:22:30.997Z,97975.16
2022-08-17T04:25:18.311Z,97970.84
2022-08-17T04:27:45.229Z,97973.84
2022-08-17T04:30:15.519Z,97981.16
2022-08-17T04:33:04.597Z,97980.22
2022-08-17T04:35:40.856Z,97979.69
2022-08-17T04:38:09.373Z,97985.31
2022-08-17T04:40:54.741Z,97989.19
2022-08-17T04:43:24.013Z,97981.13
2022-08-17T04:45:58.167Z,97986.84
2022-08-17T04:48:36.364Z,97989.06
2022-08-17T04:51:19.816Z,97985.56
2022-08-17T04:53:54.346Z,97987.75
2022-08-17T04:56:23.106Z,97988.88
2022-08-17T04:58:52.070Z,97991.75
2022-08-17T05:01:23.248Z,97992.72
2022-08-17T05:03:52.622Z,97990.53
2022-08-17T05:06:19.357Z,97990.84
2022-08-17T05:08:46.040Z,97988.38
2022-08-17T05:11:12.812Z,97998.41
2022-08-17T05:13:39.467Z,98007.38
2022-08-17T05:16:06.833Z,97998.22
2022-08-17T05:18:33.507Z,97996.63
2022-08-17T05:21:00.224Z,98002.16
2022-08-17T05:23:42.109Z,97997.81
2022-08-17T05:26:12.988Z,98004.25
2022-08-17T05:28:53.919Z,98006.22
2022-08-17T05:31:21.121Z,98005.66
2022-08-17T05:33:49.573Z,98004.88
2022-08-17T05:36:38.129Z,98014.03
2022-08-17T05:39:04.361Z,98015.63
2022-08-17T05:41:31.126Z,98019.13
2022-08-17T05:43:58.753Z,98018.16
2022-08-17T05:46:28.804Z,98017.19
2022-08-17T05:49:08.067Z,98007.78
2022-08-17T05:52:08.176Z,98004.25
2022-08-17T05:54:47.775Z,98001.16
2022-08-17T05:57:39.874Z,97999.28
2022-08-17T06:00:30.868Z,98013.13
2022-08-17T06:03:22.872Z,98001.19
2022-08-17T06:05:58.755Z,98009.75
2022-08-17T06:08:56.379Z,98002.22
2022-08-17T06:11:37.415Z,98009.47
2022-08-17T06:14:22.385Z,97999.84
2022-08-17T06:16:54.956Z,97991.88
2022-08-17T06:19:40.795Z,97996.81
2022-08-17T06:22:10.917Z,98000.91
2022-08-17T06:24:46.545Z,97999.06
2022-08-17T06:27:16.248Z,97998.09
2022-08-17T06:29:48.884Z,97993.94
2022-08-17T06:32:17.290Z,98000.72
2022-08-17T06:34:45.993Z,98002.88
2022-08-17T06:37:34.440Z,97996.63
2022-08-17T06:40:19.316Z,97990.09
2022-08-17T06:43:16.516Z,97996.00
2022-08-17T06:45:52.559Z,97993.47
2022-08-17T06:48:32.006Z,97996.88
2022-08-17T06:51:25.161Z,97990.97
2022-08-17T06:54:03.512Z,97999.44
2022-08-17T06:56:53.728Z,97999.84
2022-08-17T06:59:56.354Z,97997.78
2022-08-17T07:02:55.922Z,98000.75
2022-08-17T07:05:24.890Z,98003.28
2022-08-17T07:08:03.264Z,97998.81
2022-08-17T07:10:53.928Z,98007.72
2022-08-17T07:13:49.330Z,98008.56
2022-08-17T07:16:41.337Z,98012.13
2022-08-17T07:19:11.021Z,98014.88
2022-08-17T07:22:03.883Z,98014.25
2022-08-17T07:24:35.978Z,98022.72
2022-08-17T07:27:06.594Z,98012.94
2022-08-17T07:29:39.995Z,98013.09
2022-08-17T07:32:09.679Z,98020.69
2022-08-17T07:35:02.370Z,98014.72
2022-08-17T07:37:31.357Z,98014.25
2022-08-17T07:39:59.521Z,98013.78
2022-08-17T07:43:01.534Z,98009.66
2022-08-17T07:45:49.541Z,98007.03
2022-08-17T07:48:26.210Z,98007.81
2022-08-17T07:50:53.374Z,98013.88
2022-08-17T07:53:24.304Z,98018.41
2022-08-17T07:55:55.226Z,98017.91
2022-08-17T07:58:24.466Z,98021.28
2022-08-17T08:01:05.094Z,98015.75
2022-08-17T08:03:34.140Z,98017.56
2022-08-17T08:06:02.181Z,98027.47
2022-08-17T08:08:42.458Z,98022.88
2022-08-17T08:11:30.334Z,98028.66
2022-08-17T08:14:21.047Z,98034.44
2022-08-17T08:17:00.677Z,98025.06
2022-08-17T08:19:30.583Z,98028.28
2022-08-17T08:22:07.732Z,98032.22
2022-08-17T08:24:59.956Z,98026.56
2022-08-17T08:27:48.802Z,98028.44
2022-08-17T08:30:21.616Z,98016.72
2022-08-17T08:33:36.430Z,98013.34
2022-08-17T08:37:13.054Z,98015.47
2022-08-17T08:39:29.179Z,98015.88
2022-08-17T08:42:10.759Z,98012.28
2022-08-17T08:45:05.518Z,98004.22
2022-08-17T08:47:54.846Z,98008.31
2022-08-17T08:50:43.101Z,98019.97
2022-08-17T08:53:19.090Z,98005.88
2022-08-17T08:55:53.648Z,98017.88
2022-08-17T08:58:31.923Z,98014.94
2022-08-17T09:01:31.568Z,98020.66
2022-08-17T09:04:25.146Z,98019.50
2022-08-17T09:07:22.724Z,98017.09
2022-08-17T09:10:02.762Z,98024.13
2022-08-17T09:12:51.631Z,98012.84
2022-08-17T09:15:26.722Z,98018.28
2022-08-17T09:18:59.104Z,98020.81
2022-08-17T09:21:01.115Z,98030.50
2022-08-17T09:23:33.291Z,98036.88
2022-08-17T09:26:49.022Z,98028.38
2022-08-17T09:29:17.543Z,98028.78
2022-08-17T09:31:52.760Z,98026.25
2022-08-17T09:34:33.035Z,98029.13
2022-08-17T09:37:34.064Z,98020.53
2022-08-17T09:40:09.756Z,98028.72
2022-08-17T09:42:53.986Z,98026.00
2022-08-17T09:45:45.315Z,98023.97
2022-08-17T09:48:27.648Z,98021.59
2022-08-17T09:51:07.184Z,98020.50
2022-08-17T09:53:37.562Z,98015.31
2022-08-17T09:56:34.805Z,98019.03
2022-08-17T09:59:14.032Z,98017.91
2022-08-17T10:01:47.036Z,98010.09
2022-08-17T10:04:55.301Z,98008.81
2022-08-17T10:07:38.337Z,98008.00
2022-08-17T10:10:30.063Z,98005.41
2022-08-17T10:13:12.878Z,98006.00
2022-08-17T10:15:59.108Z,98009.88
2022-08-17T10:18:49.116Z,98007.25
2022-08-17T10:21:36.340Z,98005.31
2022-08-17T10:24:36.506Z,98015.16
2022-08-17T10:27:09.106Z,98014.47
2022-08-17T10:29:49.255Z,98008.84
2022-08-17T10:32:49.840Z,98013.66
2022-08-17T10:35:36.252Z,98018.94
2022-08-17T10:38:27.441Z,98010.13
2022-08-17T10:41:00.750Z,98018.63
2022-08-17T10:43:36.939Z,98015.06
2022-08-17T10:46:45.096Z,98019.50
2022-08-17T10:49:17.575Z,98012.72
2022-08-17T10:51:52.490Z,98018.66
2022-08-17T10:54:24.971Z,98015.63
2022-08-17T10:56:57.057Z,98013.38
2022-08-17T10:59:35.530Z,98013.72
2022-08-17T11:02:04.893Z,98004.69
2022-08-17T11:05:08.380Z,97995.53
2022-08-17T11:07:48.682Z,98007.50
2022-08-17T11:10:23.892Z,97999.47
2022-08-17T11:13:03.700Z,98004.47
2022-08-17T11:15:49.627Z,98000.91
2022-08-17T11:18:53.957Z,98007.75
2022-08-17T11:21:52.097Z,98012.38
2022-08-17T11:24:32.450Z,98008.47
2022-08-17T11:27:04.547Z,98010.28
2022-08-17T11:30:02.942Z,98013.94
2022-08-17T11:32:47.337Z,98009.22
2022-08-17T11:35:19.232Z,98017.47
2022-08-17T11:38:04.221Z,98010.44
2022-08-17T11:40:55.411Z,98007.69
2022-08-17T11:43:29.300Z,98002.56
2022-08-17T11:46:54.352Z,97996.56
2022-08-17T11:49:55.810Z,98003.09
2022-08-17T11:52:40.989Z,97994.47
2022-08-17T11:55:34.004Z,97986.13
2022-08-17T11:58:17.939Z,97986.03
2022-08-17T12:00:54.818Z,97992.88
2022-08-17T12:03:33.523Z,97984.41
2022-08-17T12:06:23.074Z,97975.88
2022-08-17T12:09:02.275Z,97979.41
2022-08-17T12:11:56.324Z,97983.78
2022-08-17T12:15:07.931Z,97986.91
2022-08-17T12:17:40.637Z,97983.81
2022-08-17T12:20:19.983Z,97983.22
2022-08-17T12:23:14.439Z,97980.28
2022-08-17T12:26:04.360Z,97984.06
2022-08-17T12:28:38.836Z,97968.06
2022-08-17T12:31:24.698Z,97969.38
2022-08-17T12:33:51.950Z,97970.81
2022-08-17T12:36:25.096Z,97962.28
2022-08-17T12:39:13.860Z,97977.31
2022-08-17T12:41:50.252Z,97988.56
2022-08-17T12:44:17.117Z,97987.66
2022-08-17T12:46:51.829Z,97980.13
2022-08-17T12:49:36.730Z,97981.19
2022-08-17T12:52:11.382Z,97975.44
2022-08-17T12:54:59.647Z,97973.34
2022-08-17T12:57:33.467Z,97965.97
2022-08-17T13:00:16.340Z,97966.69
2022-08-17T13:02:58.524Z,97972.44
2022-08-17T13:05:30.759Z,97972.69
2022-08-17T13:08:00.756Z,97964.53
2022-08-17T13:10:33.036Z,97961.03
2022-08-17T13:13:05.003Z,97964.91
2022-08-17T13:15:44.697Z,97965.41
2022-08-17T13:18:39.314Z,97967.13
2022-08-17T13:21:12.633Z,97968.44
2022-08-17T13:23:39.710Z,97960.63
2022-08-17T13:26:16.242Z,97965.91
2022-08-17T13:28:51.631Z,97968.44
2022-08-17T13:31:30.428Z,97960.59
2022-08-17T13:34:26.692Z,97969.03
2022-08-17T13:37:32.644Z,97974.13
2022-08-17T13:40:05.178Z,97956.88
2022-08-17T13:42:55.511Z,97960.69
2022-08-17T13:45:38.853Z,97951.63
2022-08-17T13:48:08.848Z,97949.56
2022-08-17T13:50:48.728Z,97954.25
2022-08-17T13:53:30.095Z,97956.91
2022-08-17T13:56:38.007Z,97968.44
2022-08-17T13:59:11.821Z,97969.59
2022-08-17T14:01:49.640Z,97970.78
2022-08-17T14:04:27.875Z,97966.13
2022-08-17T14:07:11.591Z,97962.78
2022-08-17T14:09:46.744Z,97970.47
2022-08-17T14:12:16.343Z,97957.78
2022-08-17T14:14:44.581Z,97965.25
2022-08-17T14:17:13.639Z,97953.63
2022-08-17T14:19:40.328Z,97962.25
2022-08-17T14:22:12.724Z,97962.63
2022-08-17T14:24:44.664Z,97962.09
2022-08-17T14:27:12.146Z,97967.69
2022-08-17T14:29:41.256Z,97960.66
2022-08-17T14:32:21.284Z,97959.34
2022-08-17T14:34:49.772Z,97966.66
2022-08-17T14:37:21.351Z,97951.75
2022-08-17T14:39:48.365Z,97956.94
2022-08-17T14:42:18.438Z,97949.84
2022-08-17T14:44:45.101Z,97958.59
2022-08-17T14:47:16.571Z,97959.78
2022-08-17T14:49:43.825Z,97963.31
2022-08-17T14:52:16.635Z,97961.50
2022-08-17T14:54:45.792Z,97962.00
2022-08-17T14:57:25.808Z,97964.28
2022-08-17T14:59:59.935Z,97963.91
2022-08-17T15:02:31.156Z,97964.19
2022-08-17T15:05:03.672Z,97965.25
2022-08-17T15:07:34.142Z,97962.28
2022-08-17T15:10:02.038Z,97962.63
2022-08-17T15:12:33.183Z,97969.66
2022-08-17T15:15:06.413Z,97963.47
2022-08-17T15:17:44.180Z,97973.47
2022-08-17T15:20:15.833Z,97967.53
2022-08-17T15:22:44.178Z,97961.59
2022-08-17T15:25:11.840Z,97968.44
2022-08-17T15:27:39.127Z,97958.28
2022-08-17T15:30:07.787Z,97950.59
2022-08-17T15:32:38.205Z,97959.13
2022-08-17T15:35:06.902Z,97954.28
2022-08-17T15:37:33.896Z,97957.00
2022-08-17T15:40:03.283Z,97958.25
2022-08-17T15:42:30.030Z,97960.13
2022-08-17T15:44:56.843Z,97962.22
2022-08-17T15:47:24.491Z,97955.97
2022-08-17T15:49:51.158Z,97948.00
2022-08-17T15:52:24.985Z,97951.78
2022-08-17T15:54:58.927Z,97950.06
2022-08-17T15:57:27.153Z,97956.94
2022-08-17T15:59:58.646Z,97949.03
2022-08-17T16:03:14.448Z,97952.28
2022-08-17T16:05:24.896Z,97942.66
2022-08-17T16:07:52.617Z,97949.50
2022-08-17T16:10:21.762Z,97949.72
2022-08-17T16:13:02.321Z,97955.47
2022-08-17T16:15:31.282Z,97948.41
2022-08-17T16:17:57.856Z,97958.88
2022-08-17T16:20:27.947Z,97963.19
2022-08-17T16:22:55.126Z,97956.69
2022-08-17T16:25:51.951Z,97959.13
2022-08-17T16:28:16.123Z,97948.19
2022-08-17T16:30:43.661Z,97954.53
2022-08-17T16:33:11.735Z,97962.75
2022-08-17T16:35:38.422Z,97963.53
2022-08-17T16:38:05.249Z,97962.38
2022-08-17T16:40:35.979Z,97960.94
2022-08-17T16:43:03.415Z,97963.63
2022-08-17T16:45:36.857Z,97964.91
2022-08-17T16:48:04.931Z,97966.38
2022-08-17T16:50:32.654Z,97969.06
2022-08-17T16:53:11.876Z,97968.97
2022-08-17T16:55:38.709Z,97978.28
2022-08-17T16:58:06.583Z,97972.66
2022-08-17T17:00:36.254Z,97983.66
2022-08-17T17:03:26.818Z,97974.41
2022-08-17T17:06:06.562Z,97985.16
2022-08-17T17:08:44.359Z,97977.59
2022-08-17T17:11:25.033Z,97986.06
2022-08-17T17:14:02.237Z,97987.25
2022-08-17T17:16:40.321Z,97995.16
2022-08-17T17:19:34.210Z,97987.47
2022-08-17T17:22:30.222Z,97991.84
2022-08-17T17:25:20.421Z,97988.84
2022-08-17T17:28:24.962Z,98000.78
2022-08-17T17:31:05.208Z,97996.09
2022-08-17T17:33:50.613Z,97995.25
2022-08-17T17:36:46.704Z,97999.72
2022-08-17T17:39:29.306Z,98009.13
2022-08-17T17:42:07.855Z,98002.44
2022-08-17T17:44:41.692Z,98008.22
2022-08-17T17:47:09.622Z,98010.38
2022-08-17T17:49:42.019Z,98005.88
2022-08-17T17:52:15.567Z,98015.47
2022-08-17T17:55:01.966Z,98025.84
2022-08-17T17:57:56.412Z,98022.56
2022-08-17T18:00:35.688Z,98026.56
2022-08-17T18:03:14.228Z,98023.75
2022-08-17T18:06:01.396Z,98034.53
2022-08-17T18:08:31.961Z,98032.50
2022-08-17T18:11:26.879Z,98026.06
2022-08-17T18:14:20.685Z,98034.09
2022-08-17T18:16:55.812Z,98041.00
2022-08-17T18:19:25.516Z,98034.91
2022-08-17T18:22:14.431Z,98044.53
2022-08-17T18:24:44.773Z,98042.72
2022-08-17T18:27:20.347Z,98035.56
2022-08-17T18:29:48.275Z,98046.03
2022-08-17T18:32:36.772Z,98047.16
2022-08-17T18:35:09.401Z,98056.34
2022-08-17T18:37:37.895Z,98047.25
2022-08-17T18:40:16.658Z,98047.06
2022-08-17T18:43:03.475Z,98062.59
2022-08-17T18:45:44.743Z,98062.19
2022-08-17T18:48:59.310Z,98063.25
2022-08-17T18:51:42.269Z,98066.63
2022-08-17T18:54:15.658Z,98065.13
2022-08-17T18:56:48.948Z,98063.00
2022-08-17T18:59:21.716Z,98065.97
2022-08-17T19:02:27.216Z,98069.34
2022-08-17T19:05:01.518Z,98068.50
2022-08-17T19:07:28.215Z,98078.50
2022-08-17T19:10:28.879Z,98079.31
2022-08-17T19:13:02.030Z,98085.91
2022-08-17T19:15:45.406Z,98085.06
2022-08-17T19:18:37.196Z,98088.66
2022-08-17T19:21:12.379Z,98091.22
2022-08-17T19:23:54.016Z,98095.03
2022-08-17T19:26:51.345Z,98099.72
2022-08-17T19:29:25.864Z,98093.59
2022-08-17T19:31:56.187Z,98093.78
2022-08-17T19:34:33.577Z,98094.47
2022-08-17T19:37:25.713Z,98095.97
2022-08-17T19:40:29.329Z,98091.94
2022-08-17T19:43:15.173Z,98101.53
2022-08-17T19:46:12.194Z,98101.94
2022-08-17T19:49:04.007Z,98095.81
2022-08-17T19:51:41.663Z,98095.81
2022-08-17T19:54:22.254Z,98103.47
2022-08-17T19:57:08.441Z,98103.47
2022-08-17T19:59:50.467Z,98094.78
2022-08-17T20:02:35.216Z,98089.72
2022-08-17T20:05:14.043Z,98090.34
2022-08-17T20:08:20.481Z,98098.22
2022-08-17T20:11:07.479Z,98089.34
2022-08-17T20:13:52.293Z,98087.25
2022-08-17T20:16:20.634Z,98085.78
2022-08-17T20:18:51.991Z,98092.84
2022-08-17T20:21:26.120Z,98087.34
2022-08-17T20:24:10.963Z,98091.81
2022-08-17T20:26:58.646Z,98092.03
2022-08-17T20:29:37.252Z,98100.94
2022-08-17T20:32:47.542Z,98091.19
2022-08-17T20:35:25.294Z,98088.84
2022-08-17T20:38:05.667Z,98091.59
2022-08-17T20:40:38.575Z,98091.38
2022-08-17T20:43:30.165Z,98082.28
2022-08-17T20:46:34.436Z,98079.94
2022-08-17T20:49:16.572Z,98082.28
2022-08-17T20:52:07.800Z,98082.47
2022-08-17T20:54:57.439Z,98089.88
2022-08-17T20:57:33.090Z,98085.16
2022-08-17T21:00:17.073Z,98088.56
2022-08-17T21:02:46.887Z,98081.34
2022-08-17T21:05:36.383Z,98084.50
2022-08-17T21:08:18.493Z,98089.72
2022-08-17T21:10:47.097Z,98090.75
2022-08-17T21:13:15.936Z,98089.47
2022-08-17T21:15:45.977Z,98092.66
2022-08-17T21:18:31.478Z,98093.44
2022-08-17T21:21:17.808Z,98100.56
2022-08-17T21:24:02.683Z,98102.25
2022-08-17T21:26:39.033Z,98095.44
2022-08-17T21:29:32.505Z,98094.34
2022-08-17T21:32:03.257Z,98102.34
2022-08-17T21:34:33.074Z,98101.06
2022-08-17T21:37:19.912Z,98098.06
2022-08-17T21:40:10.323Z,98094.00
2022-08-17T21:42:44.907Z,98095.53
2022-08-17T21:45:21.074Z,98088.78
2022-08-17T21:47:50.043Z,98088.78
2022-08-17T21:50:22.510Z,98081.56
2022-08-17T21:52:53.997Z,98078.19
2022-08-17T21:55:30.241Z,98073.09
2022-08-17T21:58:14.325Z,98071.19
2022-08-17T22:00:44.317Z,98073.94
2022-08-17T22:03:23.777Z,98067.41
2022-08-17T22:05:51.685Z,98061.06
2022-08-17T22:08:24.375Z,98056.63
2022-08-17T22:11:01.125Z,98058.72
2022-08-17T22:13:29.614Z,98063.56
2022-08-17T22:16:28.440Z,98063.97
2022-08-17T22:18:58.691Z,98063.31
2022-08-17T22:21:26.296Z,98070.72
2022-08-17T22:24:06.806Z,98054.88
2022-08-17T22:27:11.079Z,98061.03
2022-08-17T22:29:42.904Z,98054.47
2022-08-17T22:32:10.027Z,98047.28
2022-08-17T22:34:38.569Z,98039.88
2022-08-17T22:37:27.356Z,98035.22
2022-08-17T22:39:57.999Z,98039.88
2022-08-17T22:42:25.262Z,98030.56
2022-08-17T22:44:53.685Z,98040.72
2022-08-17T22:47:38.973Z,98035.41
2022-08-17T22:50:22.577Z,98046.41
2022-08-17T22:53:36.483Z,98043.19
2022-08-17T22:56:23.051Z,98049.50
2022-08-17T22:59:16.559Z,98057.47
2022-08-17T23:02:05.043Z,98064.56
2022-08-17T23:04:36.024Z,98064.72
2022-08-17T23:07:04.341Z,98072.69
2022-08-17T23:09:31.052Z,98080.00
2022-08-17T23:11:58.868Z,98082.53
2022-08-17T23:14:31.739Z,98086.03
2022-08-17T23:16:59.660Z,98085.53
2022-08-17T23:19:27.814Z,98101.06
2022-08-17T23:21:56.474Z,98103.56
2022-08-17T23:24:25.892Z,98108.56
2022-08-17T23:26:53.401Z,98108.09
2022-08-17T23:29:21.605Z,98099.03
2022-08-17T23:31:49.393Z,98103.63
2022-08-17T23:34:18.487Z,98110.19
2022-08-17T23:36:52.572Z,98112.66
2022-08-17T23:39:27.309Z,98101.41
2022-08-17T23:41:58.091Z,98104.09
2022-08-17T23:44:25.745Z,98107.22
2022-08-17T23:46:53.617Z,98101.06
2022-08-17T23:49:20.998Z,98101.91
2022-08-17T23:51:48.900Z,98102.13
2022-08-17T23:54:26.990Z,98104.22
2022-08-17T23:56:54.068Z,98103.16
2022-08-17T23:59:22.679Z,98102.97
